Wokal Field Glasgow International Airport
KGGW : now visible

Airfield :











YOU CAN JOIN US ON...

 
LOGIN :

Register | Disclaimer

   EN    FR    IT 

 









Legend :    VFR   Marginal VFR   IFR   Intensive IFR   Very Intensive IFR
Visi :
Ceiling :
>= 8 km
>= 3000ft
5 to 8 km
1000 to 3000 ft
1500m to 5 km
500 to 1000 ft
800 to 1500m
200 to 500 ft
< 800m
< 200 ft
Symbols :   Thunderstorms  Fog  Heavy snow  Heavy precipitations  Wind > 20 kt






- Airport Elevation : 2296 ft
- IATA code : GGW


KGGW - Wokal Field Glasgow International

CURRENT METAR :
  • 250753Z AUTO 12004KT 10SM OVC065 00/M03 A2979 RMK AO2 SLP112 T00001028

EXPIRED METARs :
  • 250653Z AUTO 11006KT 10SM BKN100 M01/M04 A2979 RMK AO2 SLP114 T10061039 400221039
  • 250553Z AUTO 00000KT 10SM FEW080 BKN120 M01/M03 A2979 RMK AO2 SLP115 T10061028 10011 21006 55000

TAF KGGW
Valid from the 25 at 06:00 until the 26 at 06:00 UTC


250521Z 2506/2606 VRB04KT 6SM BR BKN050
FM251400 VRB05KT 5SM BR SCT014 WS020/28035KT



MET'MAP, your aeronautical weather chart ! - Copyright ORBIFLY December 2007 - Disclaimer

ORBIFLY MET'MAP TEAM :

Programming & Development : Alexandra Zaïnal
Concept & original design : Baudouin d'Aumeries
Assistance for programming : Marc-Olivier Méhu
Technical & hardware support : Manuel Goepfert

Contact : metmap@orbifly.com




SOURCES & CREDITS :

   NOAA       Earth
Advisory